sensor_id;sensor_type;location;lat;lon;timestamp;P1;durP1;ratioP1;P2;durP2;ratioP2
52642;SDS011;38531;53.296;6.614;2023-04-01T00:01:01;1.63;;;0.63;;
52642;SDS011;38531;53.296;6.614;2023-04-01T00:03:28;0.95;;;0.60;;
52642;SDS011;38531;53.296;6.614;2023-04-01T00:05:55;0.93;;;0.63;;
52642;SDS011;38531;53.296;6.614;2023-04-01T00:08:22;1.10;;;0.75;;
52642;SDS011;38531;53.296;6.614;2023-04-01T00:10:49;1.77;;;1.00;;
52642;SDS011;38531;53.296;6.614;2023-04-01T00:13:15;1.20;;;0.70;;
52642;SDS011;38531;53.296;6.614;2023-04-01T00:15:41;0.98;;;0.60;;
52642;SDS011;38531;53.296;6.614;2023-04-01T00:18:07;2.75;;;0.60;;
52642;SDS011;38531;53.296;6.614;2023-04-01T00:20:33;1.60;;;0.95;;
52642;SDS011;38531;53.296;6.614;2023-04-01T00:22:59;1.88;;;1.00;;
52642;SDS011;38531;53.296;6.614;2023-04-01T00:25:25;1.25;;;1.00;;
52642;SDS011;38531;53.296;6.614;2023-04-01T00:27:51;1.20;;;0.90;;
52642;SDS011;38531;53.296;6.614;2023-04-01T00:30:17;1.85;;;1.13;;
52642;SDS011;38531;53.296;6.614;2023-04-01T00:32:43;1.95;;;1.30;;
52642;SDS011;38531;53.296;6.614;2023-04-01T00:35:09;1.95;;;1.30;;
52642;SDS011;38531;53.296;6.614;2023-04-01T00:37:37;1.45;;;0.85;;
52642;SDS011;38531;53.296;6.614;2023-04-01T00:40:05;1.90;;;1.20;;
52642;SDS011;38531;53.296;6.614;2023-04-01T00:42:32;2.30;;;1.13;;
52642;SDS011;38531;53.296;6.614;2023-04-01T00:44:57;1.52;;;0.95;;
52642;SDS011;38531;53.296;6.614;2023-04-01T00:47:24;2.28;;;1.10;;
52642;SDS011;38531;53.296;6.614;2023-04-01T00:49:51;2.65;;;1.40;;
52642;SDS011;38531;53.296;6.614;2023-04-01T00:52:23;2.95;;;1.35;;
52642;SDS011;38531;53.296;6.614;2023-04-01T00:54:53;1.92;;;1.20;;
52642;SDS011;38531;53.296;6.614;2023-04-01T00:57:29;3.20;;;1.70;;
52642;SDS011;38531;53.296;6.614;2023-04-01T00:59:57;1.98;;;1.20;;
52642;SDS011;38531;53.296;6.614;2023-04-01T01:02:24;1.50;;;0.95;;
52642;SDS011;38531;53.296;6.614;2023-04-01T01:04:50;1.60;;;0.98;;
52642;SDS011;38531;53.296;6.614;2023-04-01T01:10:07;2.03;;;1.30;;
52642;SDS011;38531;53.296;6.614;2023-04-01T01:12:44;1.67;;;1.00;;
52642;SDS011;38531;53.296;6.614;2023-04-01T01:15:19;1.65;;;0.90;;
52642;SDS011;38531;53.296;6.614;2023-04-01T01:17:52;2.83;;;0.90;;
52642;SDS011;38531;53.296;6.614;2023-04-01T01:26:13;1.58;;;0.90;;
52642;SDS011;38531;53.296;6.614;2023-04-01T01:34:35;2.67;;;1.67;;
52642;SDS011;38531;53.296;6.614;2023-04-01T01:37:20;2.17;;;1.38;;
52642;SDS011;38531;53.296;6.614;2023-04-01T01:39:56;2.45;;;1.60;;
52642;SDS011;38531;53.296;6.614;2023-04-01T01:42:26;3.35;;;1.92;;
52642;SDS011;38531;53.296;6.614;2023-04-01T01:44:55;2.17;;;1.38;;
52642;SDS011;38531;53.296;6.614;2023-04-01T01:47:24;2.75;;;1.55;;
52642;SDS011;38531;53.296;6.614;2023-04-01T01:49:51;1.83;;;1.15;;
52642;SDS011;38531;53.296;6.614;2023-04-01T01:52:19;1.88;;;1.40;;
52642;SDS011;38531;53.296;6.614;2023-04-01T01:54:50;2.10;;;1.73;;
52642;SDS011;38531;53.296;6.614;2023-04-01T01:57:18;1.65;;;1.10;;
52642;SDS011;38531;53.296;6.614;2023-04-01T01:59:48;2.58;;;1.50;;
52642;SDS011;38531;53.296;6.614;2023-04-01T02:02:15;2.42;;;1.42;;
52642;SDS011;38531;53.296;6.614;2023-04-01T02:04:42;3.25;;;1.83;;
52642;SDS011;38531;53.296;6.614;2023-04-01T02:07:18;3.30;;;2.20;;
52642;SDS011;38531;53.296;6.614;2023-04-01T02:09:52;2.05;;;1.30;;
52642;SDS011;38531;53.296;6.614;2023-04-01T02:12:18;2.45;;;1.38;;
52642;SDS011;38531;53.296;6.614;2023-04-01T02:17:18;2.33;;;1.50;;
52642;SDS011;38531;53.296;6.614;2023-04-01T02:19:50;2.20;;;1.42;;
52642;SDS011;38531;53.296;6.614;2023-04-01T02:22:21;2.42;;;1.67;;
52642;SDS011;38531;53.296;6.614;2023-04-01T02:24:52;2.03;;;1.23;;
52642;SDS011;38531;53.296;6.614;2023-04-01T02:27:22;1.67;;;1.30;;
52642;SDS011;38531;53.296;6.614;2023-04-01T02:29:48;2.40;;;1.70;;
52642;SDS011;38531;53.296;6.614;2023-04-01T02:32:15;4.63;;;1.88;;
52642;SDS011;38531;53.296;6.614;2023-04-01T02:34:42;3.97;;;2.20;;
52642;SDS011;38531;53.296;6.614;2023-04-01T02:37:08;3.78;;;2.30;;
52642;SDS011;38531;53.296;6.614;2023-04-01T02:39:36;5.45;;;1.95;;
52642;SDS011;38531;53.296;6.614;2023-04-01T02:42:02;3.67;;;1.95;;
52642;SDS011;38531;53.296;6.614;2023-04-01T02:44:28;3.05;;;1.85;;
52642;SDS011;38531;53.296;6.614;2023-04-01T02:46:53;3.38;;;1.92;;
52642;SDS011;38531;53.296;6.614;2023-04-01T02:49:19;4.47;;;2.13;;
52642;SDS011;38531;53.296;6.614;2023-04-01T02:51:45;3.55;;;2.38;;
52642;SDS011;38531;53.296;6.614;2023-04-01T02:54:11;3.72;;;2.25;;
52642;SDS011;38531;53.296;6.614;2023-04-01T02:56:36;5.15;;;3.47;;
52642;SDS011;38531;53.296;6.614;2023-04-01T02:59:02;5.90;;;2.85;;
52642;SDS011;38531;53.296;6.614;2023-04-01T03:01:28;5.57;;;3.08;;
52642;SDS011;38531;53.296;6.614;2023-04-01T03:03:54;4.57;;;2.95;;
52642;SDS011;38531;53.296;6.614;2023-04-01T03:06:20;4.70;;;2.72;;
52642;SDS011;38531;53.296;6.614;2023-04-01T03:08:45;3.30;;;2.30;;
52642;SDS011;38531;53.296;6.614;2023-04-01T03:11:12;3.67;;;1.95;;
52642;SDS011;38531;53.296;6.614;2023-04-01T03:13:37;4.13;;;2.22;;
52642;SDS011;38531;53.296;6.614;2023-04-01T03:16:03;3.33;;;2.13;;
52642;SDS011;38531;53.296;6.614;2023-04-01T03:18:29;3.38;;;1.77;;
52642;SDS011;38531;53.296;6.614;2023-04-01T03:20:55;4.10;;;2.38;;
52642;SDS011;38531;53.296;6.614;2023-04-01T03:23:21;3.47;;;2.10;;
52642;SDS011;38531;53.296;6.614;2023-04-01T03:25:49;4.15;;;2.22;;
52642;SDS011;38531;53.296;6.614;2023-04-01T03:28:15;5.07;;;2.65;;
52642;SDS011;38531;53.296;6.614;2023-04-01T03:30:41;3.22;;;2.17;;
52642;SDS011;38531;53.296;6.614;2023-04-01T03:33:07;4.25;;;2.38;;
52642;SDS011;38531;53.296;6.614;2023-04-01T03:35:33;4.72;;;2.63;;
52642;SDS011;38531;53.296;6.614;2023-04-01T03:38:01;6.53;;;3.08;;
52642;SDS011;38531;53.296;6.614;2023-04-01T03:40:27;4.47;;;2.30;;
52642;SDS011;38531;53.296;6.614;2023-04-01T03:42:53;3.60;;;2.45;;
52642;SDS011;38531;53.296;6.614;2023-04-01T03:45:18;4.20;;;2.53;;
52642;SDS011;38531;53.296;6.614;2023-04-01T03:47:44;3.60;;;2.40;;
52642;SDS011;38531;53.296;6.614;2023-04-01T03:50:10;5.82;;;4.00;;
52642;SDS011;38531;53.296;6.614;2023-04-01T03:52:36;6.35;;;4.18;;
52642;SDS011;38531;53.296;6.614;2023-04-01T03:55:01;6.65;;;4.15;;
52642;SDS011;38531;53.296;6.614;2023-04-01T03:57:27;8.32;;;5.10;;
52642;SDS011;38531;53.296;6.614;2023-04-01T03:59:53;7.00;;;4.30;;
52642;SDS011;38531;53.296;6.614;2023-04-01T04:02:19;4.70;;;2.97;;
52642;SDS011;38531;53.296;6.614;2023-04-01T04:04:45;6.15;;;3.95;;
52642;SDS011;38531;53.296;6.614;2023-04-01T04:07:11;7.00;;;4.38;;
52642;SDS011;38531;53.296;6.614;2023-04-01T04:09:37;4.78;;;2.85;;
52642;SDS011;38531;53.296;6.614;2023-04-01T04:12:03;5.68;;;4.05;;
52642;SDS011;38531;53.296;6.614;2023-04-01T04:14:30;8.32;;;3.05;;
52642;SDS011;38531;53.296;6.614;2023-04-01T04:16:56;5.25;;;3.28;;
52642;SDS011;38531;53.296;6.614;2023-04-01T04:19:22;6.72;;;4.20;;
52642;SDS011;38531;53.296;6.614;2023-04-01T04:21:48;4.93;;;3.45;;
52642;SDS011;38531;53.296;6.614;2023-04-01T04:24:13;6.72;;;4.53;;
52642;SDS011;38531;53.296;6.614;2023-04-01T04:26:39;6.05;;;4.03;;
52642;SDS011;38531;53.296;6.614;2023-04-01T04:29:05;8.30;;;4.20;;
52642;SDS011;38531;53.296;6.614;2023-04-01T04:31:31;5.85;;;3.75;;
52642;SDS011;38531;53.296;6.614;2023-04-01T04:33:58;6.65;;;3.97;;
52642;SDS011;38531;53.296;6.614;2023-04-01T04:36:25;5.13;;;3.53;;
52642;SDS011;38531;53.296;6.614;2023-04-01T04:38:50;5.47;;;3.50;;
52642;SDS011;38531;53.296;6.614;2023-04-01T04:41:17;5.43;;;3.42;;
52642;SDS011;38531;53.296;6.614;2023-04-01T04:43:48;6.00;;;3.22;;
52642;SDS011;38531;53.296;6.614;2023-04-01T04:46:16;6.15;;;3.88;;
52642;SDS011;38531;53.296;6.614;2023-04-01T04:48:42;6.13;;;3.72;;
52642;SDS011;38531;53.296;6.614;2023-04-01T04:51:12;7.15;;;4.57;;
52642;SDS011;38531;53.296;6.614;2023-04-01T04:53:42;7.78;;;3.83;;
52642;SDS011;38531;53.296;6.614;2023-04-01T04:56:08;8.00;;;4.90;;
52642;SDS011;38531;53.296;6.614;2023-04-01T04:58:34;5.90;;;3.95;;
52642;SDS011;38531;53.296;6.614;2023-04-01T05:01:05;7.53;;;4.28;;
52642;SDS011;38531;53.296;6.614;2023-04-01T05:03:32;7.63;;;4.47;;
52642;SDS011;38531;53.296;6.614;2023-04-01T05:05:57;6.35;;;4.07;;
52642;SDS011;38531;53.296;6.614;2023-04-01T05:08:23;4.78;;;3.50;;
52642;SDS011;38531;53.296;6.614;2023-04-01T05:10:51;6.65;;;3.85;;
52642;SDS011;38531;53.296;6.614;2023-04-01T05:13:17;7.90;;;4.25;;
52642;SDS011;38531;53.296;6.614;2023-04-01T05:15:43;7.68;;;4.70;;
52642;SDS011;38531;53.296;6.614;2023-04-01T05:18:08;6.72;;;4.43;;
52642;SDS011;38531;53.296;6.614;2023-04-01T05:20:34;6.45;;;4.03;;
52642;SDS011;38531;53.296;6.614;2023-04-01T05:23:00;6.97;;;4.53;;
52642;SDS011;38531;53.296;6.614;2023-04-01T05:25:26;10.68;;;4.97;;
52642;SDS011;38531;53.296;6.614;2023-04-01T05:27:52;7.43;;;4.53;;
52642;SDS011;38531;53.296;6.614;2023-04-01T05:30:18;8.73;;;5.72;;
52642;SDS011;38531;53.296;6.614;2023-04-01T05:32:43;8.05;;;5.07;;
52642;SDS011;38531;53.296;6.614;2023-04-01T05:35:09;9.43;;;5.10;;
52642;SDS011;38531;53.296;6.614;2023-04-01T05:37:36;7.45;;;4.93;;
52642;SDS011;38531;53.296;6.614;2023-04-01T05:40:02;6.90;;;4.07;;
52642;SDS011;38531;53.296;6.614;2023-04-01T05:42:29;6.57;;;4.57;;
52642;SDS011;38531;53.296;6.614;2023-04-01T05:44:54;9.73;;;5.85;;
52642;SDS011;38531;53.296;6.614;2023-04-01T05:47:21;6.85;;;4.78;;
52642;SDS011;38531;53.296;6.614;2023-04-01T05:49:47;8.25;;;5.45;;
52642;SDS011;38531;53.296;6.614;2023-04-01T05:52:13;10.43;;;5.35;;
52642;SDS011;38531;53.296;6.614;2023-04-01T05:54:39;8.50;;;5.28;;
52642;SDS011;38531;53.296;6.614;2023-04-01T05:57:05;7.72;;;4.90;;
52642;SDS011;38531;53.296;6.614;2023-04-01T05:59:31;7.63;;;4.80;;
52642;SDS011;38531;53.296;6.614;2023-04-01T06:01:57;7.63;;;4.70;;
52642;SDS011;38531;53.296;6.614;2023-04-01T06:04:22;7.45;;;4.78;;
52642;SDS011;38531;53.296;6.614;2023-04-01T06:06:49;5.30;;;3.40;;
52642;SDS011;38531;53.296;6.614;2023-04-01T06:09:17;6.45;;;3.58;;
52642;SDS011;38531;53.296;6.614;2023-04-01T06:17:16;7.47;;;4.82;;
52642;SDS011;38531;53.296;6.614;2023-04-01T06:20:20;7.85;;;5.30;;
52642;SDS011;38531;53.296;6.614;2023-04-01T06:23:02;11.98;;;5.70;;
52642;SDS011;38531;53.296;6.614;2023-04-01T06:29:01;11.13;;;7.10;;
52642;SDS011;38531;53.296;6.614;2023-04-01T06:31:37;8.90;;;5.43;;
52642;SDS011;38531;53.296;6.614;2023-04-01T06:37:22;7.80;;;5.63;;
52642;SDS011;38531;53.296;6.614;2023-04-01T06:48:14;13.20;;;8.23;;
52642;SDS011;38531;53.296;6.614;2023-04-01T06:53:35;13.60;;;8.27;;
52642;SDS011;38531;53.296;6.614;2023-04-01T06:56:12;12.15;;;7.32;;
52642;SDS011;38531;53.296;6.614;2023-04-01T06:58:42;10.55;;;6.70;;
52642;SDS011;38531;53.296;6.614;2023-04-01T07:01:35;10.65;;;6.63;;
52642;SDS011;38531;53.296;6.614;2023-04-01T07:04:13;10.40;;;6.68;;
52642;SDS011;38531;53.296;6.614;2023-04-01T07:06:59;10.38;;;6.88;;
52642;SDS011;38531;53.296;6.614;2023-04-01T07:09:40;10.65;;;6.78;;
52642;SDS011;38531;53.296;6.614;2023-04-01T07:15:04;11.38;;;6.85;;
52642;SDS011;38531;53.296;6.614;2023-04-01T07:17:59;11.38;;;6.57;;
52642;SDS011;38531;53.296;6.614;2023-04-01T07:20:31;12.10;;;7.63;;
52642;SDS011;38531;53.296;6.614;2023-04-01T07:23:04;11.18;;;7.22;;
52642;SDS011;38531;53.296;6.614;2023-04-01T07:25:37;11.50;;;7.55;;
52642;SDS011;38531;53.296;6.614;2023-04-01T07:28:11;11.65;;;6.97;;
52642;SDS011;38531;53.296;6.614;2023-04-01T07:33:29;13.07;;;8.02;;
52642;SDS011;38531;53.296;6.614;2023-04-01T07:36:10;12.68;;;7.93;;
52642;SDS011;38531;53.296;6.614;2023-04-01T07:47:13;12.38;;;7.28;;
52642;SDS011;38531;53.296;6.614;2023-04-01T08:05:00;13.55;;;7.22;;
52642;SDS011;38531;53.296;6.614;2023-04-01T08:07:49;11.05;;;6.88;;
52642;SDS011;38531;53.296;6.614;2023-04-01T08:16:20;11.45;;;6.57;;
52642;SDS011;38531;53.296;6.614;2023-04-01T08:21:42;9.63;;;5.68;;
52642;SDS011;38531;53.296;6.614;2023-04-01T08:26:55;5.30;;;2.95;;
52642;SDS011;38531;53.296;6.614;2023-04-01T08:29:26;3.65;;;2.10;;
52642;SDS011;38531;53.296;6.614;2023-04-01T08:32:22;5.38;;;2.08;;
52642;SDS011;38531;53.296;6.614;2023-04-01T08:35:27;4.22;;;1.70;;
52642;SDS011;38531;53.296;6.614;2023-04-01T08:37:57;2.95;;;1.58;;
52642;SDS011;38531;53.296;6.614;2023-04-01T08:46:16;2.88;;;1.58;;
52642;SDS011;38531;53.296;6.614;2023-04-01T08:49:00;2.63;;;1.63;;
52642;SDS011;38531;53.296;6.614;2023-04-01T08:54:16;2.63;;;1.55;;
52642;SDS011;38531;53.296;6.614;2023-04-01T08:57:13;2.85;;;1.40;;
52642;SDS011;38531;53.296;6.614;2023-04-01T09:00:04;3.03;;;1.45;;
52642;SDS011;38531;53.296;6.614;2023-04-01T09:05:36;1.50;;;0.73;;
52642;SDS011;38531;53.296;6.614;2023-04-01T09:08:28;1.73;;;1.13;;
52642;SDS011;38531;53.296;6.614;2023-04-01T09:14:10;2.10;;;1.00;;
52642;SDS011;38531;53.296;6.614;2023-04-01T09:22:22;1.77;;;0.93;;
52642;SDS011;38531;53.296;6.614;2023-04-01T09:34:30;2.22;;;1.02;;
52642;SDS011;38531;53.296;6.614;2023-04-01T09:45:53;1.17;;;0.70;;
52642;SDS011;38531;53.296;6.614;2023-04-01T09:54:59;1.60;;;0.80;;
52642;SDS011;38531;53.296;6.614;2023-04-01T10:05:53;1.27;;;0.88;;
52642;SDS011;38531;53.296;6.614;2023-04-01T10:17:12;2.88;;;0.90;;
52642;SDS011;38531;53.296;6.614;2023-04-01T10:28:36;0.75;;;0.63;;
52642;SDS011;38531;53.296;6.614;2023-04-01T10:42:48;1.00;;;0.60;;
52642;SDS011;38531;53.296;6.614;2023-04-01T10:45:44;1.77;;;0.60;;
52642;SDS011;38531;53.296;6.614;2023-04-01T10:56:45;0.77;;;0.52;;
52642;SDS011;38531;53.296;6.614;2023-04-01T11:25:29;1.15;;;0.70;;
52642;SDS011;38531;53.296;6.614;2023-04-01T11:27:38;2.95;;;0.60;;
52642;SDS011;38531;53.296;6.614;2023-04-01T11:43:27;1.13;;;0.40;;
52642;SDS011;38531;53.296;6.614;2023-04-01T11:46:08;1.25;;;0.50;;
52642;SDS011;38531;53.296;6.614;2023-04-01T11:59:27;1.05;;;0.50;;
52642;SDS011;38531;53.296;6.614;2023-04-01T12:08:04;0.50;;;0.40;;
52642;SDS011;38531;53.296;6.614;2023-04-01T12:10:40;3.42;;;0.80;;
52642;SDS011;38531;53.296;6.614;2023-04-01T12:18:59;1.23;;;0.57;;
52642;SDS011;38531;53.296;6.614;2023-04-01T12:21:58;0.93;;;0.50;;
52642;SDS011;38531;53.296;6.614;2023-04-01T12:24:47;1.38;;;0.55;;
52642;SDS011;38531;53.296;6.614;2023-04-01T12:30:05;1.38;;;0.50;;
52642;SDS011;38531;53.296;6.614;2023-04-01T12:33:00;0.80;;;0.50;;
52642;SDS011;38531;53.296;6.614;2023-04-01T12:35:36;0.93;;;0.50;;
52642;SDS011;38531;53.296;6.614;2023-04-01T12:38:22;1.17;;;0.60;;
52642;SDS011;38531;53.296;6.614;2023-04-01T12:46:27;0.73;;;0.70;;
52642;SDS011;38531;53.296;6.614;2023-04-01T12:49:07;1.05;;;0.50;;
52642;SDS011;38531;53.296;6.614;2023-04-01T13:06:17;2.88;;;0.50;;
52642;SDS011;38531;53.296;6.614;2023-04-01T13:17:22;0.63;;;0.45;;
52642;SDS011;38531;53.296;6.614;2023-04-01T13:22:53;1.67;;;0.60;;
52642;SDS011;38531;53.296;6.614;2023-04-01T13:25:50;0.65;;;0.40;;
52642;SDS011;38531;53.296;6.614;2023-04-01T13:28:27;1.48;;;0.50;;
52642;SDS011;38531;53.296;6.614;2023-04-01T13:33:53;6.53;;;0.77;;
52642;SDS011;38531;53.296;6.614;2023-04-01T13:45:00;0.43;;;0.30;;
52642;SDS011;38531;53.296;6.614;2023-04-01T13:51:13;0.85;;;0.40;;
52642;SDS011;38531;53.296;6.614;2023-04-01T13:54:07;0.50;;;0.30;;
52642;SDS011;38531;53.296;6.614;2023-04-01T14:13:09;1.08;;;0.40;;
52642;SDS011;38531;53.296;6.614;2023-04-01T14:18:21;2.40;;;0.68;;
52642;SDS011;38531;53.296;6.614;2023-04-01T14:21:21;0.70;;;0.50;;
52642;SDS011;38531;53.296;6.614;2023-04-01T14:41:42;1.67;;;0.80;;
52642;SDS011;38531;53.296;6.614;2023-04-01T14:44:35;1.35;;;0.82;;
52642;SDS011;38531;53.296;6.614;2023-04-01T14:47:24;1.73;;;0.60;;
52642;SDS011;38531;53.296;6.614;2023-04-01T14:55:00;1.17;;;0.80;;
52642;SDS011;38531;53.296;6.614;2023-04-01T15:00:14;4.30;;;1.23;;
52642;SDS011;38531;53.296;6.614;2023-04-01T15:07:45;2.10;;;0.95;;
52642;SDS011;38531;53.296;6.614;2023-04-01T15:10:31;2.42;;;0.88;;
52642;SDS011;38531;53.296;6.614;2023-04-01T15:18:27;3.58;;;1.00;;
52642;SDS011;38531;53.296;6.614;2023-04-01T15:34:09;5.13;;;2.17;;
52642;SDS011;38531;53.296;6.614;2023-04-01T15:36:49;3.85;;;1.50;;
52642;SDS011;38531;53.296;6.614;2023-04-01T15:39:23;7.53;;;2.00;;
52642;SDS011;38531;53.296;6.614;2023-04-01T15:42:18;3.53;;;1.67;;
52642;SDS011;38531;53.296;6.614;2023-04-01T15:47:42;4.05;;;2.15;;
52642;SDS011;38531;53.296;6.614;2023-04-01T16:11:43;5.82;;;2.50;;
52642;SDS011;38531;53.296;6.614;2023-04-01T16:17:05;5.60;;;2.20;;
52642;SDS011;38531;53.296;6.614;2023-04-01T16:28:12;5.30;;;2.00;;
52642;SDS011;38531;53.296;6.614;2023-04-01T16:30:37;3.65;;;1.92;;
52642;SDS011;38531;53.296;6.614;2023-04-01T16:33:14;4.88;;;1.83;;
52642;SDS011;38531;53.296;6.614;2023-04-01T16:35:55;4.88;;;1.95;;
52642;SDS011;38531;53.296;6.614;2023-04-01T16:38:36;2.97;;;1.85;;
52642;SDS011;38531;53.296;6.614;2023-04-01T16:43:55;6.65;;;2.20;;
52642;SDS011;38531;53.296;6.614;2023-04-01T16:46:43;3.67;;;2.03;;
52642;SDS011;38531;53.296;6.614;2023-04-01T16:49:17;7.35;;;2.38;;
52642;SDS011;38531;53.296;6.614;2023-04-01T16:54:55;7.32;;;1.80;;
52642;SDS011;38531;53.296;6.614;2023-04-01T16:57:26;4.70;;;1.80;;
52642;SDS011;38531;53.296;6.614;2023-04-01T17:05:49;3.70;;;1.70;;
52642;SDS011;38531;53.296;6.614;2023-04-01T17:08:41;4.25;;;2.05;;
52642;SDS011;38531;53.296;6.614;2023-04-01T17:11:16;9.93;;;2.60;;
52642;SDS011;38531;53.296;6.614;2023-04-01T17:16:27;4.00;;;2.30;;
52642;SDS011;38531;53.296;6.614;2023-04-01T17:19:36;3.63;;;2.08;;
52642;SDS011;38531;53.296;6.614;2023-04-01T17:25:02;6.82;;;3.10;;
52642;SDS011;38531;53.296;6.614;2023-04-01T17:27:49;5.28;;;2.63;;
52642;SDS011;38531;53.296;6.614;2023-04-01T17:30:33;8.98;;;3.33;;
52642;SDS011;38531;53.296;6.614;2023-04-01T17:33:10;8.70;;;2.45;;
52642;SDS011;38531;53.296;6.614;2023-04-01T17:43:58;5.45;;;2.70;;
52642;SDS011;38531;53.296;6.614;2023-04-01T17:57:56;3.67;;;2.00;;
52642;SDS011;38531;53.296;6.614;2023-04-01T18:00:24;7.63;;;3.20;;
52642;SDS011;38531;53.296;6.614;2023-04-01T18:03:24;6.45;;;2.65;;
52642;SDS011;38531;53.296;6.614;2023-04-01T18:25:47;3.65;;;1.92;;
52642;SDS011;38531;53.296;6.614;2023-04-01T18:31:21;7.07;;;3.13;;
52642;SDS011;38531;53.296;6.614;2023-04-01T18:34:02;6.22;;;2.58;;
52642;SDS011;38531;53.296;6.614;2023-04-01T18:36:51;8.80;;;2.72;;
52642;SDS011;38531;53.296;6.614;2023-04-01T18:39:34;6.00;;;2.78;;
52642;SDS011;38531;53.296;6.614;2023-04-01T18:45:28;5.97;;;2.65;;
52642;SDS011;38531;53.296;6.614;2023-04-01T18:51:01;6.13;;;2.15;;
52642;SDS011;38531;53.296;6.614;2023-04-01T18:56:24;7.82;;;3.00;;
52642;SDS011;38531;53.296;6.614;2023-04-01T18:59:09;6.93;;;3.00;;
52642;SDS011;38531;53.296;6.614;2023-04-01T19:02:00;6.60;;;2.50;;
52642;SDS011;38531;53.296;6.614;2023-04-01T19:04:39;7.95;;;2.20;;
52642;SDS011;38531;53.296;6.614;2023-04-01T19:09:54;7.20;;;3.25;;
52642;SDS011;38531;53.296;6.614;2023-04-01T19:28:26;7.38;;;2.78;;
52642;SDS011;38531;53.296;6.614;2023-04-01T19:31:14;5.72;;;2.47;;
52642;SDS011;38531;53.296;6.614;2023-04-01T19:34:20;7.72;;;3.03;;
52642;SDS011;38531;53.296;6.614;2023-04-01T19:39:53;8.27;;;2.53;;
52642;SDS011;38531;53.296;6.614;2023-04-01T19:48:09;4.20;;;2.08;;
52642;SDS011;38531;53.296;6.614;2023-04-01T19:51:04;9.05;;;2.10;;
52642;SDS011;38531;53.296;6.614;2023-04-01T19:56:22;5.10;;;2.17;;
52642;SDS011;38531;53.296;6.614;2023-04-01T20:01:44;4.60;;;2.53;;
52642;SDS011;38531;53.296;6.614;2023-04-01T20:04:36;5.65;;;2.00;;
52642;SDS011;38531;53.296;6.614;2023-04-01T20:07:16;8.18;;;2.17;;
52642;SDS011;38531;53.296;6.614;2023-04-01T20:15:41;6.90;;;2.13;;
52642;SDS011;38531;53.296;6.614;2023-04-01T20:20:57;5.72;;;2.22;;
52642;SDS011;38531;53.296;6.614;2023-04-01T20:23:40;6.80;;;2.08;;
52642;SDS011;38531;53.296;6.614;2023-04-01T20:26:10;2.85;;;1.52;;
52642;SDS011;38531;53.296;6.614;2023-04-01T20:39:27;6.38;;;1.85;;
52642;SDS011;38531;53.296;6.614;2023-04-01T20:47:40;6.70;;;1.70;;
52642;SDS011;38531;53.296;6.614;2023-04-01T20:52:49;4.93;;;1.88;;
52642;SDS011;38531;53.296;6.614;2023-04-01T20:57:55;7.78;;;2.20;;
52642;SDS011;38531;53.296;6.614;2023-04-01T21:03:29;5.38;;;2.28;;
52642;SDS011;38531;53.296;6.614;2023-04-01T21:17:08;5.20;;;2.08;;
52642;SDS011;38531;53.296;6.614;2023-04-01T21:19:54;6.43;;;1.92;;
52642;SDS011;38531;53.296;6.614;2023-04-01T21:22:27;5.60;;;1.90;;
52642;SDS011;38531;53.296;6.614;2023-04-01T21:25:17;4.05;;;1.80;;
52642;SDS011;38531;53.296;6.614;2023-04-01T21:30:57;6.03;;;2.47;;
52642;SDS011;38531;53.296;6.614;2023-04-01T21:39:20;7.45;;;2.30;;
52642;SDS011;38531;53.296;6.614;2023-04-01T21:47:19;5.75;;;1.90;;
52642;SDS011;38531;53.296;6.614;2023-04-01T21:58:20;6.43;;;1.98;;
52642;SDS011;38531;53.296;6.614;2023-04-01T22:09:25;4.88;;;1.65;;
52642;SDS011;38531;53.296;6.614;2023-04-01T22:17:54;6.75;;;1.63;;
52642;SDS011;38531;53.296;6.614;2023-04-01T22:23:44;5.47;;;1.65;;
52642;SDS011;38531;53.296;6.614;2023-04-01T22:26:32;4.72;;;1.35;;
52642;SDS011;38531;53.296;6.614;2023-04-01T22:31:58;3.55;;;1.08;;
52642;SDS011;38531;53.296;6.614;2023-04-01T22:40:34;6.80;;;1.40;;
52642;SDS011;38531;53.296;6.614;2023-04-01T22:43:13;7.03;;;1.38;;
52642;SDS011;38531;53.296;6.614;2023-04-01T22:45:54;3.17;;;1.20;;
52642;SDS011;38531;53.296;6.614;2023-04-01T22:48:29;3.67;;;1.17;;
52642;SDS011;38531;53.296;6.614;2023-04-01T22:51:21;3.33;;;1.13;;
52642;SDS011;38531;53.296;6.614;2023-04-01T22:53:59;3.58;;;1.40;;
52642;SDS011;38531;53.296;6.614;2023-04-01T22:56:39;11.40;;;1.60;;
52642;SDS011;38531;53.296;6.614;2023-04-01T23:02:21;6.22;;;1.75;;
52642;SDS011;38531;53.296;6.614;2023-04-01T23:04:56;3.20;;;1.88;;
52642;SDS011;38531;53.296;6.614;2023-04-01T23:10:14;2.33;;;1.00;;
52642;SDS011;38531;53.296;6.614;2023-04-01T23:12:47;3.15;;;1.13;;
52642;SDS011;38531;53.296;6.614;2023-04-01T23:15:15;3.55;;;1.25;;
52642;SDS011;38531;53.296;6.614;2023-04-01T23:23:41;4.30;;;1.20;;
52642;SDS011;38531;53.296;6.614;2023-04-01T23:26:25;3.88;;;1.00;;
52642;SDS011;38531;53.296;6.614;2023-04-01T23:29:01;1.63;;;0.95;;
52642;SDS011;38531;53.296;6.614;2023-04-01T23:31:38;2.47;;;1.02;;
52642;SDS011;38531;53.296;6.614;2023-04-01T23:36:42;3.60;;;1.00;;
52642;SDS011;38531;53.296;6.614;2023-04-01T23:41:55;3.60;;;1.00;;
52642;SDS011;38531;53.296;6.614;2023-04-01T23:44:25;3.03;;;0.90;;
52642;SDS011;38531;53.296;6.614;2023-04-01T23:46:53;3.05;;;1.30;;
52642;SDS011;38531;53.296;6.614;2023-04-01T23:49:30;3.42;;;1.25;;
52642;SDS011;38531;53.296;6.614;2023-04-01T23:57:39;5.80;;;1.08;;
